createdAt,value
2019-02-17T00:00:52.421Z,26.43
2019-02-17T00:03:21.461Z,26.87
2019-02-17T00:05:50.484Z,27.53
2019-02-17T00:08:19.928Z,26.43
2019-02-17T00:10:48.956Z,28.33
2019-02-17T00:13:17.983Z,27.67
2019-02-17T00:15:47.317Z,27.70
2019-02-17T00:18:16.367Z,26.70
2019-02-17T00:20:45.478Z,28.20
2019-02-17T00:23:14.811Z,25.73
2019-02-17T00:25:44.167Z,27.03
2019-02-17T00:28:13.188Z,27.03
2019-02-17T00:30:42.549Z,26.03
2019-02-17T00:33:11.586Z,24.73
2019-02-17T00:35:41.025Z,26.40
2019-02-17T00:38:10.392Z,26.37
2019-02-17T00:40:39.403Z,26.07
2019-02-17T00:43:08.505Z,25.47
2019-02-17T00:45:37.516Z,26.73
2019-02-17T00:48:06.642Z,25.10
2019-02-17T00:50:36.566Z,26.97
2019-02-17T00:53:06.287Z,25.67
2019-02-17T00:55:35.591Z,24.47
2019-02-17T00:58:04.852Z,24.90
2019-02-17T01:00:34.216Z,26.00
2019-02-17T01:03:03.276Z,26.07
2019-02-17T01:05:32.620Z,25.30
2019-02-17T01:08:01.687Z,24.30
2019-02-17T01:10:31.365Z,25.73
2019-02-17T01:13:00.356Z,25.33
2019-02-17T01:15:30.289Z,24.63
2019-02-17T01:17:59.644Z,23.97
2019-02-17T01:20:28.793Z,23.83
2019-02-17T01:22:57.842Z,23.60
2019-02-17T01:25:27.000Z,23.07
2019-02-17T01:27:56.045Z,23.37
2019-02-17T01:30:25.334Z,23.00
2019-02-17T01:32:54.340Z,22.40
2019-02-17T01:35:23.395Z,22.60
2019-02-17T01:37:52.415Z,21.17
2019-02-17T01:40:21.507Z,22.03
2019-02-17T01:42:50.549Z,21.87
2019-02-17T01:45:19.566Z,21.10
2019-02-17T01:47:48.994Z,23.00
2019-02-17T01:50:17.986Z,22.23
2019-02-17T01:52:47.390Z,23.50
2019-02-17T01:55:16.824Z,21.70
2019-02-17T01:57:45.894Z,21.70
2019-02-17T02:00:15.161Z,21.80
2019-02-17T02:02:44.495Z,23.63
2019-02-17T02:05:13.806Z,22.63
2019-02-17T02:07:42.830Z,23.03
2019-02-17T02:10:11.967Z,22.93
2019-02-17T02:12:41.321Z,22.03
2019-02-17T02:15:10.615Z,22.63
2019-02-17T02:17:40.023Z,22.97
2019-02-17T02:20:10.285Z,22.17
2019-02-17T02:22:39.509Z,23.40
2019-02-17T02:25:08.523Z,24.33
2019-02-17T02:27:37.632Z,22.37
2019-02-17T02:30:08.275Z,24.43
2019-02-17T02:32:37.546Z,23.07
2019-02-17T02:35:07.000Z,23.93
2019-02-17T02:37:37.054Z,24.10
2019-02-17T02:40:06.561Z,23.53
2019-02-17T02:42:35.601Z,23.43
2019-02-17T02:45:05.524Z,24.83
2019-02-17T02:47:35.025Z,22.90
2019-02-17T02:50:04.435Z,23.13
2019-02-17T02:52:33.444Z,22.67
2019-02-17T02:55:02.484Z,21.40
2019-02-17T02:57:31.543Z,21.63
2019-02-17T03:00:00.982Z,21.60
2019-02-17T03:02:30.098Z,20.37
2019-02-17T03:04:59.482Z,21.60
2019-02-17T03:07:28.846Z,21.97
2019-02-17T03:09:58.167Z,22.47
2019-02-17T03:12:27.260Z,23.33
2019-02-17T03:14:56.581Z,24.07
2019-02-17T03:17:26.287Z,23.53
2019-02-17T03:19:55.287Z,24.20
2019-02-17T03:22:24.405Z,21.63
2019-02-17T03:24:53.788Z,21.23
2019-02-17T03:27:22.883Z,21.77
2019-02-17T03:30:04.086Z,22.47
2019-02-17T03:32:23.474Z,21.30
2019-02-17T03:34:52.563Z,20.47
2019-02-17T03:37:21.564Z,20.63
2019-02-17T03:39:50.814Z,20.67
2019-02-17T03:42:19.838Z,21.67
2019-02-17T03:44:48.919Z,21.77
2019-02-17T03:47:17.972Z,22.40
2019-02-17T03:49:47.416Z,22.27
2019-02-17T03:52:16.433Z,23.73
2019-02-17T03:54:45.463Z,23.53
2019-02-17T03:57:14.457Z,23.20
2019-02-17T03:59:44.614Z,22.73
2019-02-17T04:02:13.747Z,22.70
2019-02-17T04:04:42.776Z,21.90
2019-02-17T04:07:11.839Z,22.13
2019-02-17T04:09:41.367Z,21.40
2019-02-17T04:12:10.370Z,21.90
2019-02-17T04:14:39.925Z,20.47
2019-02-17T04:17:08.940Z,20.97
2019-02-17T04:19:38.304Z,20.47
2019-02-17T04:22:07.308Z,21.00
2019-02-17T04:24:36.465Z,20.77
2019-02-17T04:27:05.491Z,21.83
2019-02-17T04:29:35.188Z,21.97
2019-02-17T04:32:04.207Z,21.47
2019-02-17T04:34:33.557Z,22.87
2019-02-17T04:37:02.500Z,24.67
2019-02-17T04:39:31.531Z,22.73
2019-02-17T04:42:00.551Z,23.23
2019-02-17T04:44:29.556Z,23.80
2019-02-17T04:46:58.589Z,23.43
2019-02-17T04:49:27.636Z,22.70
2019-02-17T04:51:56.668Z,21.10
2019-02-17T04:54:26.052Z,20.70
2019-02-17T04:56:55.461Z,20.70
2019-02-17T04:59:24.578Z,23.03
2019-02-17T05:01:53.624Z,22.47
2019-02-17T05:04:22.731Z,22.83
2019-02-17T05:06:51.860Z,21.50
2019-02-17T05:09:20.981Z,23.33
2019-02-17T05:11:50.618Z,22.53
2019-02-17T05:14:19.987Z,22.43
2019-02-17T05:16:49.350Z,21.73
2019-02-17T05:19:18.759Z,22.17
2019-02-17T05:21:49.385Z,22.63
2019-02-17T05:24:18.885Z,23.30
2019-02-17T05:26:47.882Z,23.97
2019-02-17T05:29:16.940Z,22.90
2019-02-17T05:31:45.966Z,23.90
2019-02-17T05:34:15.078Z,21.13
2019-02-17T05:36:44.848Z,21.17
2019-02-17T05:39:14.267Z,22.17
2019-02-17T05:41:43.289Z,20.70
2019-02-17T05:44:12.390Z,21.53
2019-02-17T05:46:41.509Z,21.73
2019-02-17T05:49:10.535Z,21.47
2019-02-17T05:51:39.869Z,19.83
2019-02-17T05:54:08.913Z,20.40
2019-02-17T05:56:37.987Z,19.47
2019-02-17T05:59:07.079Z,20.20
2019-02-17T06:01:36.152Z,20.37
2019-02-17T06:04:05.550Z,19.93
2019-02-17T06:06:34.989Z,19.93
2019-02-17T06:09:05.311Z,19.83
2019-02-17T06:11:34.491Z,20.30
2019-02-17T06:14:03.976Z,19.43
2019-02-17T06:16:33.048Z,19.53
2019-02-17T06:19:02.297Z,19.87
2019-02-17T06:21:31.945Z,19.43
2019-02-17T06:24:01.318Z,19.30
2019-02-17T06:26:30.364Z,19.73
2019-02-17T06:28:59.685Z,18.93
2019-02-17T06:31:28.911Z,19.33
2019-02-17T06:33:58.881Z,18.47
2019-02-17T06:36:27.917Z,18.87
2019-02-17T06:38:56.951Z,18.30
2019-02-17T06:41:26.301Z,18.53
2019-02-17T06:43:55.624Z,18.23
2019-02-17T06:46:28.751Z,18.40
2019-02-17T06:48:57.853Z,18.30
2019-02-17T06:51:27.182Z,17.97
2019-02-17T06:53:56.253Z,18.37
2019-02-17T06:56:50.089Z,17.53
2019-02-17T06:59:19.143Z,19.30
2019-02-17T07:01:48.153Z,18.40
2019-02-17T07:04:17.792Z,18.87
2019-02-17T07:06:57.627Z,19.03
2019-02-17T07:09:26.733Z,17.77
2019-02-17T07:11:56.817Z,19.07
2019-02-17T07:14:26.526Z,17.90
2019-02-17T07:16:55.591Z,18.53
2019-02-17T07:19:25.038Z,18.30
2019-02-17T07:21:54.068Z,17.90
2019-02-17T07:24:23.087Z,17.83
2019-02-17T07:26:52.449Z,18.73
2019-02-17T07:29:21.866Z,18.20
2019-02-17T07:31:50.973Z,17.97
2019-02-17T07:34:20.548Z,19.20
2019-02-17T07:36:49.654Z,19.37
2019-02-17T07:39:18.918Z,19.60
2019-02-17T07:41:47.952Z,18.53
2019-02-17T07:44:16.984Z,17.97
2019-02-17T07:46:46.329Z,19.10
2019-02-17T07:49:15.694Z,18.70
2019-02-17T07:51:44.734Z,19.20
2019-02-17T07:54:14.102Z,17.60
2019-02-17T07:56:43.178Z,18.37
2019-02-17T07:59:12.222Z,19.43
2019-02-17T08:01:45.332Z,19.13
2019-02-17T08:04:12.499Z,18.10
2019-02-17T08:06:41.504Z,19.70
2019-02-17T08:09:10.526Z,19.30
2019-02-17T08:11:39.555Z,20.77
2019-02-17T08:14:08.689Z,20.63
2019-02-17T08:16:37.708Z,19.80
2019-02-17T08:19:06.758Z,20.57
2019-02-17T08:21:35.807Z,20.10
2019-02-17T08:24:04.822Z,20.03
2019-02-17T08:26:34.283Z,19.77
2019-02-17T08:29:03.412Z,20.97
2019-02-17T08:31:32.646Z,19.57
2019-02-17T08:34:01.982Z,20.33
2019-02-17T08:36:31.285Z,22.57
2019-02-17T08:39:00.443Z,21.83
2019-02-17T08:41:29.589Z,21.13
2019-02-17T08:44:00.860Z,22.37
2019-02-17T08:46:29.392Z,21.83
2019-02-17T08:48:58.568Z,22.00
2019-02-17T08:51:27.598Z,20.97
2019-02-17T08:53:56.639Z,23.10
2019-02-17T08:56:25.698Z,21.50
2019-02-17T08:58:58.066Z,21.47
2019-02-17T09:01:28.731Z,20.70
2019-02-17T09:03:58.262Z,21.83
2019-02-17T09:06:27.483Z,20.93
2019-02-17T09:08:59.633Z,21.53
2019-02-17T09:11:29.017Z,21.23
2019-02-17T09:13:58.114Z,22.23
2019-02-17T09:16:27.171Z,21.10
2019-02-17T09:18:56.281Z,20.97
2019-02-17T09:21:25.295Z,20.30
2019-02-17T09:23:55.987Z,21.33
2019-02-17T09:26:25.314Z,21.13
2019-02-17T09:28:54.414Z,21.23
2019-02-17T09:31:23.449Z,21.60
2019-02-17T09:33:53.384Z,21.17
2019-02-17T09:36:22.745Z,20.53
2019-02-17T09:38:51.826Z,21.27
2019-02-17T09:41:20.844Z,20.70
2019-02-17T09:43:49.873Z,20.57
2019-02-17T09:46:18.901Z,19.40
2019-02-17T09:48:47.964Z,20.30
2019-02-17T09:51:17.664Z,19.37
2019-02-17T09:53:46.672Z,19.40
2019-02-17T09:56:15.709Z,20.10
2019-02-17T09:58:44.744Z,19.93
2019-02-17T10:01:13.751Z,18.67
2019-02-17T10:03:42.797Z,20.07
2019-02-17T10:06:12.308Z,19.30
2019-02-17T10:08:42.055Z,18.27
2019-02-17T10:11:11.149Z,19.33
2019-02-17T10:13:40.172Z,18.42
2019-02-17T10:16:09.216Z,18.07
2019-02-17T10:18:38.266Z,18.40
2019-02-17T10:21:07.343Z,19.30
2019-02-17T10:23:37.112Z,16.87
2019-02-17T10:26:06.138Z,18.00
2019-02-17T10:28:42.103Z,16.73
2019-02-17T10:31:05.963Z,17.42
2019-02-17T10:33:35.022Z,17.27
2019-02-17T10:36:04.189Z,16.50
2019-02-17T10:38:33.257Z,16.52
2019-02-17T10:41:02.354Z,16.90
2019-02-17T10:43:31.752Z,17.35
2019-02-17T10:46:01.117Z,16.52
2019-02-17T10:48:30.201Z,16.27
2019-02-17T10:50:59.609Z,15.72
2019-02-17T10:53:29.419Z,15.32
2019-02-17T10:55:58.481Z,15.43
2019-02-17T10:58:27.517Z,14.65
2019-02-17T11:00:56.520Z,14.93
2019-02-17T11:03:25.599Z,14.55
2019-02-17T11:05:54.959Z,14.75
2019-02-17T11:08:24.075Z,13.80
2019-02-17T11:10:53.087Z,14.63
2019-02-17T11:13:22.157Z,14.75
2019-02-17T11:15:51.164Z,14.45
2019-02-17T11:18:20.498Z,13.68
2019-02-17T11:20:49.819Z,13.80
2019-02-17T11:23:18.851Z,13.72
2019-02-17T11:25:47.976Z,13.18
2019-02-17T11:28:17.289Z,13.83
2019-02-17T11:30:46.335Z,14.87
2019-02-17T11:33:15.689Z,13.65
2019-02-17T11:35:44.713Z,12.65
2019-02-17T11:38:13.738Z,13.53
2019-02-17T11:40:42.796Z,14.40
2019-02-17T11:43:12.113Z,12.78
2019-02-17T11:45:41.499Z,12.30
2019-02-17T11:48:10.543Z,12.43
2019-02-17T11:50:39.857Z,12.28
2019-02-17T11:53:09.213Z,13.22
2019-02-17T11:55:38.240Z,13.10
2019-02-17T11:58:07.829Z,13.40
2019-02-17T12:00:36.854Z,12.65
2019-02-17T12:03:08.234Z,13.25
2019-02-17T12:05:36.733Z,12.82
2019-02-17T12:08:05.817Z,13.60
2019-02-17T12:10:34.887Z,13.58
2019-02-17T12:13:04.163Z,13.67
2019-02-17T12:15:33.196Z,13.18
2019-02-17T12:18:02.226Z,12.68
2019-02-17T12:20:46.811Z,14.07
2019-02-17T12:23:19.646Z,12.58
2019-02-17T12:25:55.932Z,13.20
2019-02-17T12:28:44.167Z,12.80
2019-02-17T12:31:18.251Z,12.07
2019-02-17T12:33:47.285Z,12.78
2019-02-17T12:36:16.328Z,12.53
2019-02-17T12:38:45.385Z,12.43
2019-02-17T12:41:14.593Z,12.35
2019-02-17T12:43:43.895Z,12.70
2019-02-17T12:46:13.284Z,12.65
2019-02-17T12:48:42.389Z,13.10
2019-02-17T12:51:11.711Z,12.88
2019-02-17T12:53:41.035Z,12.83
2019-02-17T12:56:10.073Z,13.07
2019-02-17T12:58:39.121Z,11.03
2019-02-17T13:01:08.509Z,10.20
2019-02-17T13:03:37.577Z,11.75
2019-02-17T13:06:06.693Z,11.38
2019-02-17T13:08:35.781Z,10.57
2019-02-17T13:11:04.944Z,11.43
2019-02-17T13:13:34.003Z,10.80
2019-02-17T13:16:03.038Z,11.20
2019-02-17T13:18:32.021Z,11.43
2019-02-17T13:21:01.067Z,11.27
2019-02-17T13:23:30.169Z,10.73
2019-02-17T13:25:59.293Z,10.67
2019-02-17T13:28:28.323Z,10.40
2019-02-17T13:30:57.445Z,11.07
2019-02-17T13:33:26.752Z,10.67
2019-02-17T13:35:55.869Z,11.00
2019-02-17T13:38:24.918Z,10.87
2019-02-17T13:40:54.321Z,10.43
2019-02-17T13:43:23.353Z,10.23
2019-02-17T13:45:52.620Z,10.40
2019-02-17T13:48:25.433Z,9.50
2019-02-17T13:50:54.526Z,10.43
2019-02-17T13:53:23.642Z,9.97
2019-02-17T13:55:52.918Z,9.63
2019-02-17T13:58:22.223Z,9.93
2019-02-17T14:00:51.283Z,8.85
2019-02-17T14:03:20.602Z,8.93
2019-02-17T14:05:49.654Z,8.83
2019-02-17T14:08:18.697Z,9.20
2019-02-17T14:10:48.043Z,8.73
2019-02-17T14:13:17.061Z,9.15
2019-02-17T14:15:46.145Z,8.67
2019-02-17T14:18:15.208Z,8.70
2019-02-17T14:20:44.563Z,9.50
2019-02-17T14:23:13.859Z,10.03
2019-02-17T14:25:42.903Z,9.33
2019-02-17T14:28:11.937Z,9.73
2019-02-17T14:30:40.941Z,8.23
2019-02-17T14:33:10.101Z,9.13
2019-02-17T14:35:39.453Z,9.33
2019-02-17T14:38:08.898Z,8.87
2019-02-17T14:40:37.943Z,8.30
2019-02-17T14:43:07.383Z,8.97
2019-02-17T14:45:36.392Z,8.57
2019-02-17T14:48:05.728Z,8.77
2019-02-17T14:50:34.748Z,8.90
2019-02-17T14:53:03.804Z,9.23
2019-02-17T14:55:33.477Z,8.90
2019-02-17T14:58:05.535Z,8.47
2019-02-17T15:00:33.855Z,8.90
2019-02-17T15:03:02.892Z,8.27
2019-02-17T15:05:31.943Z,8.23
2019-02-17T15:08:01.033Z,8.60
2019-02-17T15:10:30.104Z,7.97
2019-02-17T15:13:01.869Z,8.17
2019-02-17T15:15:32.505Z,7.53
2019-02-17T15:18:01.625Z,7.10
2019-02-17T15:20:30.924Z,7.63
2019-02-17T15:23:00.065Z,7.90
2019-02-17T15:25:33.907Z,7.50
2019-02-17T15:28:06.465Z,7.43
2019-02-17T15:30:36.090Z,7.73
2019-02-17T15:33:09.021Z,7.70
2019-02-17T15:35:38.424Z,7.80
2019-02-17T15:38:08.562Z,7.43
2019-02-17T15:40:37.605Z,7.07
2019-02-17T15:43:06.699Z,7.67
2019-02-17T15:45:35.707Z,7.40
2019-02-17T15:48:05.020Z,7.23
2019-02-17T15:50:34.111Z,7.47
2019-02-17T15:53:03.134Z,6.90
2019-02-17T15:55:32.244Z,7.50
2019-02-17T15:58:01.262Z,7.00
2019-02-17T16:00:30.268Z,7.00
2019-02-17T16:02:59.302Z,7.30
2019-02-17T16:05:28.619Z,6.90
2019-02-17T16:07:57.639Z,7.63
2019-02-17T16:10:27.032Z,6.93
2019-02-17T16:12:56.418Z,6.83
2019-02-17T16:15:26.632Z,7.27
2019-02-17T16:17:55.675Z,7.07
2019-02-17T16:20:24.998Z,7.40
2019-02-17T16:22:54.005Z,7.27
2019-02-17T16:25:23.087Z,7.00
2019-02-17T16:27:52.463Z,6.50
2019-02-17T16:30:21.516Z,7.20
2019-02-17T16:32:50.644Z,6.80
2019-02-17T16:35:19.918Z,6.73
2019-02-17T16:37:48.928Z,6.50
2019-02-17T16:40:17.990Z,7.47
2019-02-17T16:42:47.019Z,7.80
2019-02-17T16:45:16.797Z,7.27
2019-02-17T16:47:46.145Z,8.20
2019-02-17T16:50:17.755Z,7.57
2019-02-17T16:52:46.759Z,8.07
2019-02-17T16:55:16.422Z,8.27
2019-02-17T16:57:45.546Z,8.57
2019-02-17T17:00:18.327Z,8.30
2019-02-17T17:02:47.403Z,8.60
2019-02-17T17:05:16.471Z,9.37
2019-02-17T17:07:45.901Z,9.13
2019-02-17T17:10:15.451Z,9.63
2019-02-17T17:12:44.503Z,8.40
2019-02-17T17:15:15.321Z,9.07
2019-02-17T17:17:44.744Z,9.30
2019-02-17T17:20:14.140Z,10.23
2019-02-17T17:22:43.597Z,9.80
2019-02-17T17:25:12.756Z,10.97
2019-02-17T17:27:41.817Z,10.00
2019-02-17T17:30:12.220Z,9.50
2019-02-17T17:32:41.269Z,9.80
2019-02-17T17:35:10.657Z,9.33
2019-02-17T17:37:39.822Z,9.37
2019-02-17T17:40:10.925Z,9.37
2019-02-17T17:42:40.273Z,9.20
2019-02-17T17:45:11.855Z,8.67
2019-02-17T17:47:40.930Z,9.80
2019-02-17T17:50:11.513Z,9.80
2019-02-17T17:52:40.676Z,10.20
2019-02-17T17:55:09.819Z,10.60
2019-02-17T17:57:39.165Z,10.37
2019-02-17T18:00:10.343Z,10.50
2019-02-17T18:02:39.490Z,11.43
2019-02-17T18:05:09.782Z,12.40
2019-02-17T18:07:39.352Z,12.57
2019-02-17T18:10:10.968Z,12.50
2019-02-17T18:12:40.398Z,13.43
2019-02-17T18:15:11.062Z,12.33
2019-02-17T18:17:40.419Z,11.97
2019-02-17T18:20:10.649Z,12.37
2019-02-17T18:22:39.721Z,14.13
2019-02-17T18:25:09.412Z,13.77
2019-02-17T18:27:38.543Z,15.43
2019-02-17T18:30:09.393Z,15.13
2019-02-17T18:32:38.873Z,16.10
2019-02-17T18:35:08.472Z,17.87
2019-02-17T18:37:38.310Z,14.90
2019-02-17T18:40:08.407Z,15.87
2019-02-17T18:42:37.417Z,14.63
2019-02-17T18:45:07.488Z,13.53
2019-02-17T18:47:37.070Z,12.17
2019-02-17T18:50:07.581Z,11.80
2019-02-17T18:52:36.667Z,12.83
2019-02-17T18:55:05.940Z,13.33
2019-02-17T18:57:35.188Z,13.50
2019-02-17T19:00:04.836Z,11.93
2019-02-17T19:02:33.874Z,12.67
2019-02-17T19:05:02.948Z,12.60
2019-02-17T19:07:32.029Z,12.63
2019-02-17T19:10:01.331Z,12.10
2019-02-17T19:12:30.409Z,13.50
2019-02-17T19:14:59.492Z,13.03
2019-02-17T19:17:28.870Z,14.10
2019-02-17T19:19:57.943Z,14.53
2019-02-17T19:22:26.959Z,13.20
2019-02-17T19:24:56.519Z,12.80
2019-02-17T19:27:25.562Z,13.00
2019-02-17T19:29:54.925Z,13.40
2019-02-17T19:32:23.948Z,13.53
2019-02-17T19:34:53.064Z,13.17
2019-02-17T19:37:22.110Z,13.77
2019-02-17T19:39:51.641Z,13.17
2019-02-17T19:42:20.756Z,13.83
2019-02-17T19:44:49.821Z,14.83
2019-02-17T19:47:19.119Z,13.43
2019-02-17T19:49:48.151Z,13.50
2019-02-17T19:52:17.278Z,14.93
2019-02-17T19:54:46.306Z,15.47
2019-02-17T19:57:15.316Z,13.93
2019-02-17T19:59:44.381Z,14.33
2019-02-17T20:02:13.452Z,14.63
2019-02-17T20:04:45.464Z,12.97
2019-02-17T20:07:14.555Z,15.07
2019-02-17T20:09:43.974Z,13.00
2019-02-17T20:12:13.251Z,13.33
2019-02-17T20:14:42.269Z,13.97
2019-02-17T20:17:11.285Z,13.70
2019-02-17T20:19:40.581Z,13.47
2019-02-17T20:22:09.622Z,13.67
2019-02-17T20:24:38.684Z,12.70
2019-02-17T20:27:07.755Z,13.27
2019-02-17T20:29:37.595Z,13.60
2019-02-17T20:32:07.003Z,12.83
2019-02-17T20:34:36.082Z,11.90
2019-02-17T20:37:05.451Z,12.53
2019-02-17T20:39:34.553Z,12.33
2019-02-17T20:42:03.637Z,13.87
2019-02-17T20:44:32.751Z,13.93
2019-02-17T20:47:01.982Z,13.77
2019-02-17T20:49:32.875Z,14.30
2019-02-17T20:52:02.041Z,14.17
2019-02-17T20:54:31.241Z,14.97
2019-02-17T20:57:00.286Z,13.67
2019-02-17T20:59:29.657Z,14.00
2019-02-17T21:01:58.710Z,13.93
2019-02-17T21:04:27.761Z,13.93
2019-02-17T21:06:56.968Z,15.10
2019-02-17T21:09:26.568Z,14.27
2019-02-17T21:11:55.992Z,12.87
2019-02-17T21:14:25.330Z,12.83
2019-02-17T21:16:54.336Z,11.67
2019-02-17T21:19:23.988Z,12.50
2019-02-17T21:21:53.456Z,12.57
2019-02-17T21:24:23.002Z,12.20
2019-02-17T21:26:52.102Z,12.77
2019-02-17T21:29:21.296Z,12.33
2019-02-17T21:31:50.313Z,12.80
2019-02-17T21:34:19.732Z,12.37
2019-02-17T21:36:48.856Z,12.20
2019-02-17T21:39:18.165Z,12.13
2019-02-17T21:41:47.938Z,11.90
2019-02-17T21:44:16.976Z,12.23
2019-02-17T21:46:46.070Z,12.07
2019-02-17T21:49:15.126Z,11.23
2019-02-17T21:51:44.208Z,12.10
2019-02-17T21:54:13.304Z,11.63
2019-02-17T21:56:42.439Z,11.50
2019-02-17T21:59:11.850Z,10.50
2019-02-17T22:01:40.907Z,11.30
2019-02-17T22:04:09.902Z,11.13
2019-02-17T22:06:39.003Z,10.23
2019-02-17T22:09:08.010Z,11.57
2019-02-17T22:11:37.166Z,11.50
2019-02-17T22:14:06.488Z,11.53
2019-02-17T22:16:35.983Z,13.10
2019-02-17T22:19:05.414Z,10.97
2019-02-17T22:21:34.819Z,11.40
2019-02-17T22:24:03.888Z,11.17
2019-02-17T22:26:33.099Z,11.17
2019-02-17T22:29:02.728Z,11.73
2019-02-17T22:31:31.732Z,11.73
2019-02-17T22:34:01.113Z,11.37
2019-02-17T22:36:30.516Z,11.57
2019-02-17T22:39:00.224Z,10.30
2019-02-17T22:41:29.222Z,10.80
2019-02-17T22:43:58.535Z,10.40
2019-02-17T22:46:27.573Z,10.40
2019-02-17T22:48:57.381Z,11.53
2019-02-17T22:51:26.431Z,10.73
2019-02-17T22:53:59.007Z,10.80
2019-02-17T22:56:28.514Z,11.07
2019-02-17T22:58:57.756Z,10.90
2019-02-17T23:01:30.806Z,10.80
2019-02-17T23:04:00.608Z,10.40
2019-02-17T23:06:29.665Z,10.47
2019-02-17T23:08:58.798Z,10.87
2019-02-17T23:11:28.107Z,10.93
2019-02-17T23:13:58.023Z,10.57
2019-02-17T23:16:27.142Z,10.90
2019-02-17T23:18:56.556Z,11.30
2019-02-17T23:21:25.581Z,11.40
2019-02-17T23:23:54.631Z,10.40
2019-02-17T23:26:23.651Z,10.47
2019-02-17T23:28:52.700Z,10.37
2019-02-17T23:31:22.241Z,10.70
2019-02-17T23:33:51.247Z,10.70
2019-02-17T23:36:20.720Z,10.80
2019-02-17T23:38:50.173Z,11.20
2019-02-17T23:41:19.275Z,10.47
2019-02-17T23:43:48.640Z,10.97
2019-02-17T23:46:18.014Z,10.47
2019-02-17T23:48:47.645Z,10.50
2019-02-17T23:51:16.679Z,10.90
2019-02-17T23:53:46.102Z,11.30
2019-02-17T23:56:15.242Z,12.27
2019-02-17T23:58:44.259Z,12.33
